createdAt,value
2022-08-12T00:02:04.362Z,37.65
2022-08-12T00:04:51.242Z,37.77
2022-08-12T00:07:36.484Z,37.74
2022-08-12T00:10:22.148Z,38.24
2022-08-12T00:13:07.313Z,38.04
2022-08-12T00:15:55.003Z,38.21
2022-08-12T00:18:40.248Z,38.32
2022-08-12T00:21:25.727Z,38.78
2022-08-12T00:24:12.906Z,38.53
2022-08-12T00:27:00.246Z,38.49
2022-08-12T00:29:47.960Z,38.41
2022-08-12T00:32:35.771Z,38.54
2022-08-12T00:35:24.453Z,38.87
2022-08-12T00:38:22.539Z,39.28
2022-08-12T00:41:08.017Z,38.70
2022-08-12T00:43:36.134Z,39.44
2022-08-12T00:46:22.104Z,39.51
2022-08-12T00:48:49.793Z,39.43
2022-08-12T00:51:16.818Z,39.57
2022-08-12T00:53:43.713Z,39.80
2022-08-12T00:56:10.954Z,39.89
2022-08-12T00:58:43.975Z,40.07
2022-08-12T01:01:10.737Z,40.01
2022-08-12T01:03:59.537Z,40.51
2022-08-12T01:06:50.886Z,40.28
2022-08-12T01:09:37.304Z,40.52
2022-08-12T01:12:06.493Z,40.58
2022-08-12T01:14:33.891Z,40.47
2022-08-12T01:17:00.546Z,40.78
2022-08-12T01:19:27.527Z,41.08
2022-08-12T01:22:20.893Z,41.17
2022-08-12T01:24:57.032Z,41.68
2022-08-12T01:27:27.170Z,41.31
2022-08-12T01:29:57.723Z,41.88
2022-08-12T01:32:27.944Z,41.58
2022-08-12T01:35:16.328Z,41.38
2022-08-12T01:37:56.944Z,42.09
2022-08-12T01:40:34.311Z,41.59
2022-08-12T01:43:07.978Z,41.77
2022-08-12T01:45:43.235Z,42.34
2022-08-12T01:48:40.312Z,42.13
2022-08-12T01:52:20.996Z,41.89
2022-08-12T01:54:29.738Z,42.29
2022-08-12T01:57:11.389Z,42.25
2022-08-12T01:59:59.456Z,42.20
2022-08-12T02:02:33.557Z,42.54
2022-08-12T02:05:22.767Z,42.42
2022-08-12T02:08:28.812Z,42.64
2022-08-12T02:11:18.650Z,42.74
2022-08-12T02:14:35.892Z,42.41
2022-08-12T02:17:20.606Z,42.71
2022-08-12T02:20:23.659Z,43.17
2022-08-12T02:23:04.910Z,43.04
2022-08-12T02:25:41.477Z,43.71
2022-08-12T02:28:09.054Z,44.04
2022-08-12T02:30:42.470Z,44.11
2022-08-12T02:33:10.718Z,43.90
2022-08-12T02:35:40.036Z,44.46
2022-08-12T02:38:11.122Z,44.69
2022-08-12T02:40:40.703Z,44.63
2022-08-12T02:43:35.024Z,45.43
2022-08-12T02:46:08.251Z,45.71
2022-08-12T02:49:00.947Z,45.76
2022-08-12T02:51:38.908Z,46.31
2022-08-12T02:54:07.906Z,46.08
2022-08-12T02:56:40.677Z,45.92
2022-08-12T02:59:14.449Z,46.69
2022-08-12T03:01:50.847Z,46.92
2022-08-12T03:04:26.887Z,46.63
2022-08-12T03:07:06.161Z,46.71
2022-08-12T03:10:05.080Z,46.53
2022-08-12T03:12:41.427Z,47.36
2022-08-12T03:15:18.302Z,47.20
2022-08-12T03:18:27.232Z,47.18
2022-08-12T03:20:50.185Z,46.73
2022-08-12T03:23:29.954Z,47.29
2022-08-12T03:26:02.240Z,46.95
2022-08-12T03:28:50.819Z,47.05
2022-08-12T03:31:20.046Z,47.19
2022-08-12T03:34:01.855Z,47.01
2022-08-12T03:36:35.580Z,46.94
2022-08-12T03:39:18.707Z,47.03
2022-08-12T03:42:22.034Z,47.23
2022-08-12T03:45:17.807Z,47.48
2022-08-12T03:48:18.951Z,47.51
2022-08-12T03:51:05.688Z,47.43
2022-08-12T03:53:51.907Z,47.43
2022-08-12T03:56:37.824Z,47.44
2022-08-12T03:59:24.515Z,47.41
2022-08-12T04:01:58.303Z,47.60
2022-08-12T04:04:34.854Z,47.71
2022-08-12T04:07:07.838Z,47.96
2022-08-12T04:09:37.745Z,48.05
2022-08-12T04:12:26.098Z,47.88
2022-08-12T04:14:54.622Z,48.03
2022-08-12T04:17:22.339Z,48.17
2022-08-12T04:19:49.253Z,48.20
2022-08-12T04:22:16.804Z,48.02
2022-08-12T04:24:47.708Z,48.35
2022-08-12T04:27:17.442Z,48.46
2022-08-12T04:30:31.969Z,48.37
2022-08-12T04:32:32.146Z,48.57
2022-08-12T04:34:59.084Z,48.64
2022-08-12T04:37:25.723Z,48.77
2022-08-12T04:39:54.120Z,49.32
2022-08-12T04:42:21.414Z,48.97
2022-08-12T04:44:48.547Z,49.50
2022-08-12T04:47:16.986Z,49.20
2022-08-12T04:49:48.151Z,49.12
2022-08-12T04:52:14.839Z,48.60
2022-08-12T04:54:41.767Z,48.48
2022-08-12T04:57:10.065Z,48.27
2022-08-12T04:59:48.098Z,48.07
2022-08-12T05:02:21.197Z,48.40
2022-08-12T05:04:51.989Z,48.12
2022-08-12T05:07:20.091Z,47.91
2022-08-12T05:10:00.631Z,47.58
2022-08-12T05:12:34.317Z,47.21
2022-08-12T05:15:01.055Z,47.00
2022-08-12T05:17:30.437Z,46.96
2022-08-12T05:19:58.320Z,46.98
2022-08-12T05:22:28.628Z,46.84
2022-08-12T05:24:55.204Z,46.68
2022-08-12T05:27:22.963Z,46.40
2022-08-12T05:30:06.721Z,46.47
2022-08-12T05:32:36.142Z,45.73
2022-08-12T05:35:06.608Z,45.62
2022-08-12T05:37:34.965Z,45.95
2022-08-12T05:40:08.255Z,45.88
2022-08-12T05:42:37.930Z,45.85
2022-08-12T05:45:05.181Z,44.87
2022-08-12T05:47:48.702Z,45.00
2022-08-12T05:50:19.441Z,44.87
2022-08-12T05:52:46.043Z,44.76
2022-08-12T05:55:14.914Z,44.43
2022-08-12T05:57:41.444Z,43.94
2022-08-12T06:00:08.648Z,44.01
2022-08-12T06:02:35.320Z,44.42
2022-08-12T06:05:02.615Z,43.85
2022-08-12T06:08:00.661Z,43.31
2022-08-12T06:10:32.227Z,43.63
2022-08-12T06:13:02.606Z,43.28
2022-08-12T06:15:30.462Z,44.00
2022-08-12T06:18:11.609Z,43.93
2022-08-12T06:20:43.712Z,43.63
2022-08-12T06:23:12.071Z,43.66
2022-08-12T06:25:38.973Z,43.85
2022-08-12T06:28:21.496Z,43.61
2022-08-12T06:31:08.168Z,43.02
2022-08-12T06:33:55.199Z,43.46
2022-08-12T06:36:29.899Z,43.32
2022-08-12T06:38:59.341Z,42.94
2022-08-12T06:42:02.722Z,42.54
2022-08-12T06:44:32.799Z,42.27
2022-08-12T06:46:59.866Z,42.41
2022-08-12T06:49:35.733Z,42.19
2022-08-12T06:52:04.550Z,41.47
2022-08-12T06:54:32.413Z,41.27
2022-08-12T06:57:04.626Z,40.71
2022-08-12T06:59:32.466Z,41.38
2022-08-12T07:01:59.332Z,40.33
2022-08-12T07:04:41.317Z,40.48
2022-08-12T07:07:09.318Z,39.87
2022-08-12T07:10:04.500Z,40.34
2022-08-12T07:12:27.884Z,40.01
2022-08-12T07:14:56.225Z,39.79
2022-08-12T07:17:22.755Z,39.30
2022-08-12T07:19:50.095Z,39.44
2022-08-12T07:22:16.755Z,39.10
2022-08-12T07:24:43.817Z,38.91
2022-08-12T07:27:10.365Z,38.25
2022-08-12T07:30:04.227Z,38.40
2022-08-12T07:32:25.616Z,37.98
2022-08-12T07:34:57.002Z,37.75
2022-08-12T07:37:23.650Z,37.69
2022-08-12T07:39:59.528Z,36.96
2022-08-12T07:42:26.896Z,36.00
2022-08-12T07:44:53.796Z,35.87
2022-08-12T07:47:20.386Z,36.00
2022-08-12T07:50:04.858Z,35.54
2022-08-12T07:52:36.401Z,35.69
2022-08-12T07:55:04.361Z,36.00
2022-08-12T07:57:34.220Z,36.07
2022-08-12T08:00:05.941Z,35.84
2022-08-12T08:02:33.847Z,35.29
2022-08-12T08:05:00.878Z,34.49
2022-08-12T08:07:30.547Z,34.81
2022-08-12T08:09:59.426Z,34.48
2022-08-12T08:12:46.109Z,34.03
2022-08-12T08:15:15.182Z,34.59
2022-08-12T08:17:57.924Z,34.83
2022-08-12T08:20:29.456Z,35.07
2022-08-12T08:22:58.108Z,34.59
2022-08-12T08:25:36.457Z,34.30
2022-08-12T08:28:09.441Z,34.08
2022-08-12T08:30:39.083Z,33.81
2022-08-12T08:33:24.759Z,33.49
2022-08-12T08:35:57.158Z,32.86
2022-08-12T08:38:31.785Z,33.27
2022-08-12T08:42:17.783Z,33.28
2022-08-12T08:44:05.851Z,32.62
2022-08-12T08:46:38.203Z,30.41
2022-08-12T08:49:05.423Z,30.16
2022-08-12T08:51:32.079Z,29.10
2022-08-12T08:53:59.309Z,29.14
2022-08-12T08:56:27.439Z,28.92
2022-08-12T08:58:53.963Z,28.89
2022-08-12T09:01:23.167Z,28.65
2022-08-12T09:05:08.016Z,28.55
2022-08-12T09:06:53.727Z,28.97
2022-08-12T09:09:23.800Z,29.66
2022-08-12T09:12:11.517Z,29.06
2022-08-12T09:14:47.054Z,29.48
2022-08-12T09:17:21.395Z,29.62
2022-08-12T09:19:55.149Z,29.83
2022-08-12T09:22:28.580Z,29.21
2022-08-12T09:25:11.050Z,28.16
2022-08-12T09:28:03.577Z,27.55
2022-08-12T09:30:42.307Z,27.18
2022-08-12T09:33:18.495Z,27.48
2022-08-12T09:36:04.141Z,28.05
2022-08-12T09:38:32.042Z,28.22
2022-08-12T09:42:09.600Z,27.96
2022-08-12T09:44:05.678Z,27.71
2022-08-12T09:46:34.592Z,27.75
2022-08-12T09:49:03.921Z,27.31
2022-08-12T09:51:43.649Z,28.00
2022-08-12T09:54:34.250Z,27.44
2022-08-12T09:57:03.845Z,27.13
2022-08-12T10:00:13.255Z,27.86
2022-08-12T10:02:44.707Z,28.10
2022-08-12T10:05:17.537Z,27.35
2022-08-12T10:07:44.676Z,27.78
2022-08-12T10:10:24.113Z,26.63
2022-08-12T10:13:37.588Z,26.57
2022-08-12T10:16:05.214Z,27.17
2022-08-12T10:18:35.808Z,26.90
2022-08-12T10:21:07.308Z,26.54
2022-08-12T10:23:39.269Z,26.48
2022-08-12T10:26:37.771Z,26.57
2022-08-12T10:30:03.333Z,27.14
2022-08-12T10:32:43.831Z,27.01
2022-08-12T10:35:10.605Z,26.40
2022-08-12T10:38:33.694Z,26.58
2022-08-12T10:40:31.513Z,26.13
2022-08-12T10:43:18.443Z,26.21
2022-08-12T10:45:49.974Z,26.19
2022-08-12T10:48:27.140Z,26.47
2022-08-12T10:51:56.454Z,26.37
2022-08-12T10:53:52.716Z,26.12
2022-08-12T10:56:19.623Z,27.20
2022-08-12T10:58:48.922Z,26.32
2022-08-12T11:02:24.923Z,26.38
2022-08-12T11:04:22.340Z,26.55
2022-08-12T11:07:09.092Z,26.71
2022-08-12T11:10:00.625Z,26.42
2022-08-12T11:12:57.796Z,25.51
2022-08-12T11:15:33.205Z,25.43
2022-08-12T11:18:11.577Z,25.26
2022-08-12T11:20:39.318Z,25.79
2022-08-12T11:23:25.814Z,25.60
2022-08-12T11:25:56.218Z,25.53
2022-08-12T11:28:33.452Z,25.64
2022-08-12T11:31:03.325Z,25.58
2022-08-12T11:34:05.233Z,24.71
2022-08-12T11:36:17.501Z,25.10
2022-08-12T11:38:50.851Z,25.10
2022-08-12T11:41:28.127Z,24.91
2022-08-12T11:44:30.717Z,24.15
2022-08-12T11:46:52.909Z,24.47
2022-08-12T11:49:31.089Z,24.77
2022-08-12T11:52:00.717Z,25.27
2022-08-12T11:54:29.810Z,24.53
2022-08-12T11:56:59.413Z,25.13
2022-08-12T12:02:16.373Z,24.86
2022-08-12T12:04:45.667Z,25.28
2022-08-12T12:07:18.936Z,26.02
2022-08-12T12:09:53.083Z,25.94
2022-08-12T12:12:22.556Z,25.30
2022-08-12T12:14:54.776Z,25.69
2022-08-12T12:17:24.678Z,25.14
2022-08-12T12:19:53.277Z,25.57
2022-08-12T12:22:23.037Z,25.75
2022-08-12T12:24:51.396Z,26.08
2022-08-12T12:27:39.261Z,25.74
2022-08-12T12:30:18.829Z,26.21
2022-08-12T12:32:56.969Z,25.62
2022-08-12T12:36:19.968Z,26.12
2022-08-12T12:38:12.842Z,24.78
2022-08-12T12:40:43.787Z,24.67
2022-08-12T12:43:11.519Z,24.56
2022-08-12T12:45:44.459Z,23.83
2022-08-12T12:48:15.448Z,24.07
2022-08-12T12:51:13.320Z,24.73
2022-08-12T12:54:08.035Z,24.13
2022-08-12T12:56:33.879Z,23.18
2022-08-12T12:59:03.784Z,22.73
2022-08-12T13:01:32.044Z,22.90
2022-08-12T13:04:02.414Z,22.64
2022-08-12T13:06:31.464Z,22.99
2022-08-12T13:09:03.289Z,22.86
2022-08-12T13:11:42.200Z,22.75
2022-08-12T13:14:27.843Z,22.52
2022-08-12T13:16:55.135Z,22.79
2022-08-12T13:19:25.079Z,22.27
2022-08-12T13:22:18.750Z,22.81
2022-08-12T13:24:46.294Z,22.93
2022-08-12T13:27:20.927Z,22.30
2022-08-12T13:29:48.968Z,22.83
2022-08-12T13:32:31.037Z,23.38
2022-08-12T13:35:04.372Z,22.99
2022-08-12T13:37:55.827Z,23.26
2022-08-12T13:40:32.884Z,21.80
2022-08-12T13:43:01.772Z,22.18
2022-08-12T13:45:31.328Z,21.52
2022-08-12T13:48:00.135Z,21.56
2022-08-12T13:50:32.505Z,21.74
2022-08-12T13:53:23.746Z,21.78
2022-08-12T13:56:01.419Z,21.66
2022-08-12T13:58:34.642Z,20.98
2022-08-12T14:01:05.867Z,19.96
2022-08-12T14:03:50.343Z,20.06
2022-08-12T14:06:18.608Z,20.36
2022-08-12T14:08:45.533Z,20.21
2022-08-12T14:11:18.578Z,20.13
2022-08-12T14:14:04.341Z,19.88
2022-08-12T14:16:46.760Z,19.35
2022-08-12T14:19:22.778Z,19.58
2022-08-12T14:21:59.640Z,19.27
2022-08-12T14:24:40.724Z,19.52
2022-08-12T14:27:10.264Z,19.57
2022-08-12T14:30:05.055Z,19.66
2022-08-12T14:32:35.759Z,19.63
2022-08-12T14:35:09.184Z,19.54
2022-08-12T14:37:57.016Z,19.43
2022-08-12T14:40:29.751Z,19.20
2022-08-12T14:43:00.578Z,19.39
2022-08-12T14:45:45.443Z,19.52
2022-08-12T14:48:24.193Z,18.61
2022-08-12T14:52:10.699Z,18.68
2022-08-12T14:57:06.023Z,19.00
2022-08-12T14:59:57.447Z,19.14
2022-08-12T15:02:21.206Z,19.02
2022-08-12T15:04:56.232Z,20.39
2022-08-12T15:07:34.370Z,18.93
2022-08-12T15:10:09.837Z,18.94
2022-08-12T15:12:36.881Z,18.39
2022-08-12T15:15:09.067Z,18.60
2022-08-12T15:17:38.643Z,18.91
2022-08-12T15:20:31.429Z,19.27
2022-08-12T15:22:53.771Z,19.86
2022-08-12T15:25:20.963Z,20.59
2022-08-12T15:28:04.198Z,21.06
2022-08-12T15:30:33.927Z,21.16
2022-08-12T15:33:00.717Z,21.49
2022-08-12T15:35:50.480Z,21.77
2022-08-12T15:38:22.320Z,22.22
2022-08-12T15:40:54.852Z,22.03
2022-08-12T15:43:51.044Z,22.31
2022-08-12T15:46:15.189Z,22.51
2022-08-12T15:48:46.776Z,22.76
2022-08-12T15:51:59.262Z,22.66
2022-08-12T15:54:33.472Z,22.82
2022-08-12T15:57:08.154Z,22.87
2022-08-12T16:00:00.196Z,22.81
2022-08-12T16:02:26.991Z,23.12
2022-08-12T16:04:54.338Z,23.02
2022-08-12T16:07:25.981Z,23.22
2022-08-12T16:10:08.288Z,23.42
2022-08-12T16:12:54.914Z,23.22
2022-08-12T16:15:29.575Z,22.83
2022-08-12T16:18:15.012Z,23.27
2022-08-12T16:20:47.228Z,23.21
2022-08-12T16:23:36.006Z,23.27
2022-08-12T16:26:14.813Z,22.63
2022-08-12T16:28:43.953Z,22.58
2022-08-12T16:31:22.553Z,22.63
2022-08-12T16:33:59.107Z,22.78
2022-08-12T16:36:30.438Z,22.63
2022-08-12T16:39:01.531Z,22.60
2022-08-12T16:41:29.379Z,23.15
2022-08-12T16:44:06.169Z,22.79
2022-08-12T16:46:34.927Z,22.97
2022-08-12T16:49:09.278Z,22.59
2022-08-12T16:51:41.881Z,22.47
2022-08-12T16:54:13.998Z,22.71
2022-08-12T16:56:55.554Z,22.49
2022-08-12T16:59:53.387Z,22.29
2022-08-12T17:02:31.703Z,22.41
2022-08-12T17:05:03.530Z,22.87
2022-08-12T17:07:36.596Z,23.02
2022-08-12T17:10:18.177Z,23.11
2022-08-12T17:12:44.916Z,22.86
2022-08-12T17:15:41.276Z,22.59
2022-08-12T17:18:41.203Z,22.74
2022-08-12T17:20:49.210Z,22.84
2022-08-12T17:23:19.454Z,22.60
2022-08-12T17:25:48.308Z,22.89
2022-08-12T17:28:16.878Z,22.97
2022-08-12T17:30:44.737Z,23.30
2022-08-12T17:33:17.167Z,23.01
2022-08-12T17:35:52.043Z,23.26
2022-08-12T17:38:21.140Z,23.78
2022-08-12T17:40:47.939Z,23.06
2022-08-12T17:43:57.394Z,23.56
2022-08-12T17:46:12.506Z,23.57
2022-08-12T17:48:55.065Z,23.29
2022-08-12T17:51:24.482Z,23.50
2022-08-12T17:54:10.708Z,23.71
2022-08-12T17:56:42.990Z,23.10
2022-08-12T17:59:12.373Z,23.44
2022-08-12T18:01:45.607Z,23.98
2022-08-12T18:04:22.806Z,24.05
2022-08-12T18:07:01.808Z,23.59
2022-08-12T18:09:32.160Z,24.23
2022-08-12T18:12:24.651Z,24.18
2022-08-12T18:15:09.049Z,24.08
2022-08-12T18:17:39.182Z,23.99
2022-08-12T18:20:08.726Z,24.20
2022-08-12T18:22:43.514Z,24.32
2022-08-12T18:26:10.033Z,24.98
2022-08-12T18:28:16.924Z,25.21
2022-08-12T18:30:52.931Z,24.97
2022-08-12T18:33:26.021Z,25.30
2022-08-12T18:35:55.657Z,25.31
2022-08-12T18:38:25.776Z,25.24
2022-08-12T18:41:21.810Z,25.59
2022-08-12T18:44:05.295Z,25.92
2022-08-12T18:46:53.656Z,26.06
2022-08-12T18:49:37.932Z,25.90
2022-08-12T18:52:08.038Z,25.77
2022-08-12T18:54:41.490Z,26.34
2022-08-12T18:57:19.737Z,26.15
2022-08-12T19:00:07.810Z,26.31
2022-08-12T19:02:40.661Z,26.04
2022-08-12T19:05:11.644Z,26.83
2022-08-12T19:07:58.113Z,26.80
2022-08-12T19:10:28.227Z,27.23
2022-08-12T19:13:23.879Z,27.08
2022-08-12T19:15:57.389Z,27.14
2022-08-12T19:18:29.738Z,27.41
2022-08-12T19:21:06.558Z,27.40
2022-08-12T19:23:38.596Z,27.83
2022-08-12T19:26:12.197Z,27.76
2022-08-12T19:28:39.636Z,27.92
2022-08-12T19:31:55.382Z,27.66
2022-08-12T19:34:47.196Z,28.05
2022-08-12T19:37:15.469Z,28.14
2022-08-12T19:40:10.317Z,28.43
2022-08-12T19:42:32.709Z,28.70
2022-08-12T19:45:05.111Z,28.38
2022-08-12T19:47:39.136Z,28.83
2022-08-12T19:50:06.888Z,28.69
2022-08-12T19:52:39.362Z,28.81
2022-08-12T19:55:19.362Z,28.78
2022-08-12T19:58:01.650Z,29.28
2022-08-12T20:00:30.489Z,29.51
2022-08-12T20:03:00.727Z,29.31
2022-08-12T20:06:05.388Z,29.60
2022-08-12T20:08:26.441Z,29.60
2022-08-12T20:12:11.143Z,29.64
2022-08-12T20:13:57.992Z,29.79
2022-08-12T20:16:50.619Z,29.45
2022-08-12T20:19:14.585Z,29.91
2022-08-12T20:21:43.634Z,29.81
2022-08-12T20:24:14.225Z,29.39
2022-08-12T20:26:42.275Z,29.69
2022-08-12T20:29:11.625Z,29.43
2022-08-12T20:31:43.076Z,29.72
2022-08-12T20:34:12.136Z,29.58
2022-08-12T20:36:44.830Z,29.40
2022-08-12T20:39:23.459Z,29.82
2022-08-12T20:42:06.221Z,30.39
2022-08-12T20:44:39.891Z,29.87
2022-08-12T20:47:18.641Z,30.45
2022-08-12T20:49:46.492Z,30.30
2022-08-12T20:52:25.507Z,30.35
2022-08-12T20:54:56.654Z,30.45
2022-08-12T20:57:23.986Z,30.72
2022-08-12T20:59:52.699Z,30.25
2022-08-12T21:02:24.620Z,30.59
2022-08-12T21:05:19.775Z,30.90
2022-08-12T21:07:51.937Z,31.15
2022-08-12T21:10:20.804Z,31.00
2022-08-12T21:12:48.974Z,31.21
2022-08-12T21:15:23.961Z,30.82
2022-08-12T21:18:09.720Z,31.57
2022-08-12T21:20:54.347Z,31.54
2022-08-12T21:23:22.895Z,31.33
2022-08-12T21:25:51.666Z,31.38
2022-08-12T21:28:20.817Z,31.68
2022-08-12T21:30:54.924Z,31.19
2022-08-12T21:33:58.436Z,31.55
2022-08-12T21:36:34.405Z,31.75
2022-08-12T21:39:20.271Z,32.15
2022-08-12T21:41:51.569Z,32.13
2022-08-12T21:44:24.454Z,32.58
2022-08-12T21:47:20.136Z,32.11
2022-08-12T21:49:55.657Z,31.93
2022-08-12T21:52:34.308Z,32.33
2022-08-12T21:55:02.214Z,32.00
2022-08-12T21:57:30.432Z,31.93
2022-08-12T22:00:05.913Z,32.03
2022-08-12T22:03:03.316Z,31.80
2022-08-12T22:05:49.126Z,32.22
2022-08-12T22:08:17.196Z,32.93
2022-08-12T22:10:52.576Z,32.94
2022-08-12T22:14:02.615Z,33.19
2022-08-12T22:16:11.526Z,32.94
2022-08-12T22:18:39.889Z,32.81
2022-08-12T22:21:07.205Z,33.32
2022-08-12T22:23:51.811Z,32.52
2022-08-12T22:26:37.674Z,33.09
2022-08-12T22:29:23.983Z,33.13
2022-08-12T22:31:54.672Z,33.21
2022-08-12T22:34:22.249Z,33.93
2022-08-12T22:36:57.177Z,33.64
2022-08-12T22:39:23.919Z,33.84
2022-08-12T22:42:12.020Z,33.69
2022-08-12T22:44:57.162Z,34.45
2022-08-12T22:47:53.753Z,33.69
2022-08-12T22:50:26.894Z,33.86
2022-08-12T22:53:15.165Z,33.99
2022-08-12T22:56:00.591Z,34.29
2022-08-12T22:58:33.829Z,34.24
2022-08-12T23:01:02.292Z,34.58
2022-08-12T23:03:47.802Z,34.91
2022-08-12T23:06:16.766Z,34.96
2022-08-12T23:08:43.597Z,34.89
2022-08-12T23:11:10.485Z,34.62
2022-08-12T23:13:48.621Z,34.46
2022-08-12T23:16:28.015Z,34.78
2022-08-12T23:19:10.014Z,34.95
2022-08-12T23:22:06.540Z,35.29
2022-08-12T23:24:56.704Z,34.97
2022-08-12T23:27:51.545Z,35.00
2022-08-12T23:30:25.194Z,35.56
2022-08-12T23:33:00.780Z,35.32
2022-08-12T23:35:45.929Z,35.36
2022-08-12T23:38:30.288Z,35.79
2022-08-12T23:40:58.182Z,36.11
2022-08-12T23:43:25.642Z,36.21
2022-08-12T23:46:00.655Z,35.89
2022-08-12T23:48:31.278Z,36.99
2022-08-12T23:51:01.243Z,36.37
2022-08-12T23:53:32.323Z,36.50
2022-08-12T23:55:59.627Z,36.95
2022-08-12T23:58:28.273Z,36.64
